Impacts METAR Board
IDs:

KPDX - Portland Intl Arpt, OR, US

Updated at: 0100 UTC 28 May 2018
Potential Impact None Slight Moderate High
Time 27/13Z 27/14Z 27/15Z 27/16Z 27/17Z 27/18Z 27/19Z 27/20Z 27/21Z 27/22Z 27/23Z 28/00Z 28/01Z
Temp53 55 56 59 61 64 66 70 73 76 78 78 79
Dewpt47 47 47 47 47 47 46 46 46 46 47 48 48
Altim30.25 30.26 30.26 30.26 30.25 30.23 30.22 30.19 30.17 30.16 30.15 30.14 30.12
VIS10 10 10 10 10 10 10 10 10 10 10 10 10
CIG-- -- -- -- -- -- -- -- -- -- -- -- --
CoverSCTSCTFEWSCTFEWSCTSCTFEWFEWSCTFEWFEWFEW
FltCatVFRVFRVFRVFRVFRVFRVFRVFRVFRVFRVFRVFRVFR
WX--------------------------
WDir36000405030003000280310320
WSpd3 0 0 3 4 5 0 5 9 6 12 8 9
WGst-- -- -- -- -- -- -- -- -- -- -- -- --
Raw hourly METARs
KPDX 271253Z 36003KT 10SM FEW050 SCT250 12/08 A3025 RMK AO2 SLP242 T01170083
KPDX 271353Z 00000KT 10SM FEW020 SCT250 13/08 A3026 RMK AO2 SLP244 T01280083
KPDX 271453Z 00000KT 10SM FEW020 FEW250 13/08 A3026 RMK AO2 SLP245 T01330083 53002
KPDX 271553Z 04003KT 10SM SCT020 SCT250 15/08 A3026 RMK AO2 SLP245 T01500083
KPDX 271653Z 05004KT 10SM FEW025 FEW250 16/08 A3025 RMK AO2 SLP243 T01610083
KPDX 271753Z 03005KT 10SM FEW030 SCT250 18/08 A3023 RMK AO2 SLP237 T01780083 10178 20117 58008
KPDX 271853Z 00000KT 10SM FEW035 SCT250 19/08 A3022 RMK AO2 SLP231 T01890078
KPDX 271953Z VRB05KT 10SM FEW035 FEW250 21/08 A3019 RMK AO2 SLP224 T02110078
KPDX 272053Z 30009KT 10SM FEW040 FEW250 23/08 A3017 RMK AO2 SLP217 T02280078 58020
KPDX 272153Z VRB06KT 10SM SCT250 24/08 A3016 RMK AO2 SLP213 T02440078
KPDX 272253Z 28012KT 10SM FEW250 26/08 A3015 RMK AO2 SLP210 T02560083
KPDX 272353Z 31008KT 10SM FEW250 26/09 A3014 RMK AO2 SLP205 T02560089 10261 20172 58013
KPDX 280053Z 32009KT 10SM FEW250 26/09 A3012 RMK AO2 SLP199 T02610089



Page loaded:  01:29 UTC  |   06:29 PM Pacific  |   07:29 PM Mountain  |   08:29 PM Central  |   09:29 PM Eastern

 

ADVISORIES

FORECASTS

FORECASTS

OBSERVATIONS

USER TOOLS

ABOUT US